createdAt,value
2018-01-12T00:00:55.480Z,0
2018-01-12T00:01:55.003Z,0
2018-01-12T00:02:55.256Z,0
2018-01-12T00:03:55.075Z,0
2018-01-12T00:04:55.290Z,0
2018-01-12T00:05:55.555Z,0
2018-01-12T00:06:55.314Z,0
2018-01-12T00:07:55.333Z,0
2018-01-12T00:08:55.094Z,0
2018-01-12T00:09:55.119Z,0
2018-01-12T00:10:55.384Z,0
2018-01-12T00:11:55.144Z,0
2018-01-12T00:12:55.163Z,0
2018-01-12T00:13:55.686Z,0
2018-01-12T00:14:55.447Z,0
2018-01-12T00:15:55.466Z,0
2018-01-12T00:16:55.747Z,0
2018-01-12T00:17:55.750Z,0
2018-01-12T00:18:55.331Z,0
2018-01-12T00:19:55.768Z,0
2018-01-12T00:20:55.529Z,0
2018-01-12T00:21:55.294Z,0
2018-01-12T00:22:55.560Z,0
2018-01-12T00:23:55.321Z,0
2018-01-12T00:24:55.591Z,0
2018-01-12T00:25:55.355Z,0
2018-01-12T00:26:55.620Z,0
2018-01-12T00:27:55.635Z,0
2018-01-12T00:28:55.912Z,0
2018-01-12T00:29:55.913Z,0
2018-01-12T00:30:55.979Z,0
2018-01-12T00:31:55.192Z,0
2018-01-12T00:32:55.455Z,0
2018-01-12T00:33:55.525Z,0
2018-01-12T00:34:55.742Z,0
2018-01-12T00:35:55.756Z,0
2018-01-12T00:36:55.786Z,0
2018-01-12T00:37:56.045Z,0
2018-01-12T00:38:56.052Z,0
2018-01-12T00:39:56.067Z,0
2018-01-12T00:40:56.108Z,0
2018-01-12T00:41:55.589Z,0
2018-01-12T00:42:56.117Z,0
2018-01-12T00:43:55.879Z,0
2018-01-12T00:44:56.144Z,0
2018-01-12T00:45:56.158Z,0
2018-01-12T00:46:55.416Z,0
2018-01-12T00:47:55.980Z,0
2018-01-12T00:48:55.957Z,0
2018-01-12T00:49:56.216Z,0
2018-01-12T00:50:55.721Z,0
2018-01-12T00:51:56.039Z,0
2018-01-12T00:52:55.756Z,0
2018-01-12T00:53:56.022Z,0
2018-01-12T00:54:56.035Z,0
2018-01-12T00:55:56.303Z,0
2018-01-12T00:56:56.072Z,0
2018-01-12T00:57:56.081Z,0
2018-01-12T00:58:56.095Z,0
2018-01-12T00:59:55.865Z,0
2018-01-12T01:00:56.187Z,0
2018-01-12T01:01:56.391Z,0
2018-01-12T01:02:56.154Z,0
2018-01-12T01:03:56.175Z,0
2018-01-12T01:04:55.931Z,0
2018-01-12T01:05:56.204Z,0
2018-01-12T01:06:56.523Z,0
2018-01-12T01:07:55.982Z,0
2018-01-12T01:08:56.496Z,0
2018-01-12T01:09:56.524Z,0
2018-01-12T01:10:56.531Z,0
2018-01-12T01:11:56.392Z,0
2018-01-12T01:12:56.057Z,0
2018-01-12T01:13:56.576Z,0
2018-01-12T01:14:56.330Z,0
2018-01-12T01:15:56.589Z,0
2018-01-12T01:16:56.618Z,0
2018-01-12T01:17:56.628Z,0
2018-01-12T01:18:56.397Z,0
2018-01-12T01:19:56.682Z,0
2018-01-12T01:20:56.172Z,0
2018-01-12T01:21:56.487Z,0
2018-01-12T01:22:56.452Z,0
2018-01-12T01:23:56.465Z,0
2018-01-12T01:24:56.490Z,0
2018-01-12T01:25:56.495Z,0
2018-01-12T01:26:56.507Z,0
2018-01-12T01:27:56.775Z,0
2018-01-12T01:28:56.543Z,0
2018-01-12T01:29:56.563Z,0
2018-01-12T01:30:56.316Z,0
2018-01-12T01:31:56.869Z,0
2018-01-12T01:32:56.857Z,0
2018-01-12T01:33:56.362Z,0
2018-01-12T01:34:56.885Z,0
2018-01-12T01:35:56.645Z,0
2018-01-12T01:36:56.810Z,0
2018-01-12T01:37:56.434Z,0
2018-01-12T01:38:56.696Z,0
2018-01-12T01:39:56.453Z,0
2018-01-12T01:40:56.975Z,0
2018-01-12T01:41:56.833Z,0
2018-01-12T01:42:56.750Z,0
2018-01-12T01:43:57.019Z,0
2018-01-12T01:44:57.030Z,0
2018-01-12T01:45:57.050Z,0
2018-01-12T01:46:56.810Z,0
2018-01-12T01:47:57.073Z,0
2018-01-12T01:48:56.843Z,0
2018-01-12T01:49:56.600Z,0
2018-01-12T01:50:56.620Z,0
2018-01-12T01:51:56.736Z,0
2018-01-12T01:52:57.144Z,0
2018-01-12T01:53:56.661Z,0
2018-01-12T01:54:56.936Z,0
2018-01-12T01:55:56.696Z,0
2018-01-12T01:56:56.972Z,0
2018-01-12T01:57:56.720Z,0
2018-01-12T01:58:56.990Z,0
2018-01-12T01:59:57.252Z,0
2018-01-12T02:00:57.033Z,0
2018-01-12T02:01:57.285Z,0
2018-01-12T02:02:57.051Z,0
2018-01-12T02:03:57.069Z,0
2018-01-12T02:04:56.821Z,0
2018-01-12T02:05:56.851Z,0
2018-01-12T02:06:57.157Z,0
2018-01-12T02:07:57.371Z,0
2018-01-12T02:08:57.147Z,0
2018-01-12T02:09:57.150Z,0
2018-01-12T02:10:56.912Z,0
2018-01-12T02:11:57.180Z,0
2018-01-12T02:12:57.221Z,0
2018-01-12T02:13:56.960Z,0
2018-01-12T02:14:57.226Z,0
2018-01-12T02:15:56.989Z,0
2018-01-12T02:16:57.512Z,0
2018-01-12T02:17:57.528Z,0
2018-01-12T02:18:57.286Z,0
2018-01-12T02:19:57.553Z,0
2018-01-12T02:20:57.083Z,0
2018-01-12T02:21:57.127Z,0
2018-01-12T02:22:57.603Z,0
2018-01-12T02:23:57.362Z,0
2018-01-12T02:24:57.381Z,0
2018-01-12T02:25:57.389Z,0
2018-01-12T02:26:57.145Z,0
2018-01-12T02:27:57.672Z,0
2018-01-12T02:28:57.809Z,0
2018-01-12T02:29:57.201Z,0
2018-01-12T02:30:57.210Z,0
2018-01-12T02:31:57.226Z,0
2018-01-12T02:32:57.493Z,0
2018-01-12T02:33:57.253Z,0
2018-01-12T02:34:57.269Z,0
2018-01-12T02:35:57.545Z,0
2018-01-12T02:36:57.806Z,0
2018-01-12T02:37:57.619Z,0
2018-01-12T02:38:57.576Z,0
2018-01-12T02:39:57.588Z,0
2018-01-12T02:40:57.860Z,0
2018-01-12T02:41:57.637Z,0
2018-01-12T02:42:57.485Z,0
2018-01-12T02:43:57.903Z,0
2018-01-12T02:44:57.922Z,0
2018-01-12T02:45:57.685Z,0
2018-01-12T02:46:57.700Z,0
2018-01-12T02:47:57.742Z,0
2018-01-12T02:48:57.995Z,0
2018-01-12T02:49:57.736Z,0
2018-01-12T02:50:57.751Z,0
2018-01-12T02:51:58.034Z,0
2018-01-12T02:52:57.579Z,0
2018-01-12T02:53:57.795Z,0
2018-01-12T02:54:57.814Z,0
2018-01-12T02:55:58.078Z,0
2018-01-12T02:56:57.845Z,0
2018-01-12T02:57:57.915Z,0
2018-01-12T02:58:58.142Z,0
2018-01-12T02:59:57.894Z,0
2018-01-12T03:00:57.902Z,0
2018-01-12T03:01:58.224Z,0
2018-01-12T03:02:57.936Z,0
2018-01-12T03:03:57.949Z,0
2018-01-12T03:04:57.958Z,0
2018-01-12T03:05:58.227Z,0
2018-01-12T03:06:57.994Z,0
2018-01-12T03:07:58.053Z,0
2018-01-12T03:08:58.285Z,0
2018-01-12T03:09:57.781Z,0
2018-01-12T03:10:58.055Z,0
2018-01-12T03:11:57.814Z,0
2018-01-12T03:12:58.331Z,0
2018-01-12T03:13:58.352Z,0
2018-01-12T03:14:58.363Z,0
2018-01-12T03:15:57.871Z,0
2018-01-12T03:16:58.394Z,0
2018-01-12T03:17:57.908Z,0
2018-01-12T03:18:58.424Z,0
2018-01-12T03:19:57.683Z,0
2018-01-12T03:20:58.202Z,0
2018-01-12T03:21:58.216Z,0
2018-01-12T03:22:58.231Z,0
2018-01-12T03:23:58.498Z,0
2018-01-12T03:24:58.262Z,0
2018-01-12T03:25:58.023Z,0
2018-01-12T03:26:58.545Z,0
2018-01-12T03:27:58.308Z,0
2018-01-12T03:28:58.581Z,0
2018-01-12T03:29:58.337Z,0
2018-01-12T03:30:58.366Z,0
2018-01-12T03:31:58.369Z,0
2018-01-12T03:32:58.381Z,0
2018-01-12T03:33:58.140Z,0
2018-01-12T03:34:58.170Z,0
2018-01-12T03:35:58.418Z,0
2018-01-12T03:36:58.180Z,0
2018-01-12T03:37:58.700Z,0
2018-01-12T03:38:58.510Z,0
2018-01-12T03:39:58.231Z,0
2018-01-12T03:40:58.495Z,0
2018-01-12T03:41:58.522Z,0
2018-01-12T03:42:58.275Z,0
2018-01-12T03:43:58.549Z,0
2018-01-12T03:44:58.304Z,0
2018-01-12T03:45:58.578Z,0
2018-01-12T03:46:58.594Z,0
2018-01-12T03:47:58.609Z,0
2018-01-12T03:48:58.617Z,0
2018-01-12T03:49:58.633Z,0
2018-01-12T03:50:58.649Z,0
2018-01-12T03:51:58.665Z,0
2018-01-12T03:52:58.423Z,0
2018-01-12T03:53:58.695Z,0
2018-01-12T03:54:58.960Z,0
2018-01-12T03:55:58.724Z,0
2018-01-12T03:56:58.734Z,0
2018-01-12T03:57:59.006Z,0
2018-01-12T03:58:58.762Z,0
2018-01-12T03:59:58.528Z,0
2018-01-12T04:00:58.791Z,0
2018-01-12T04:01:59.077Z,0
2018-01-12T04:02:58.574Z,0
2018-01-12T04:03:59.102Z,0
2018-01-12T04:04:58.602Z,0
2018-01-12T04:05:59.120Z,0
2018-01-12T04:06:59.140Z,0
2018-01-12T04:07:59.152Z,0
2018-01-12T04:08:58.966Z,0
2018-01-12T04:09:59.179Z,0
2018-01-12T04:10:58.686Z,0
2018-01-12T04:11:59.212Z,0
2018-01-12T04:12:58.971Z,0
2018-01-12T04:13:58.982Z,0
2018-01-12T04:14:59.010Z,0
2018-01-12T04:15:58.761Z,0
2018-01-12T04:16:59.029Z,0
2018-01-12T04:17:59.039Z,0
2018-01-12T04:18:59.053Z,0
2018-01-12T04:19:58.823Z,0
2018-01-12T04:20:59.082Z,0
2018-01-12T04:21:59.404Z,0
2018-01-12T04:22:59.375Z,0
2018-01-12T04:23:58.877Z,0
2018-01-12T04:24:59.194Z,0
2018-01-12T04:25:58.908Z,0
2018-01-12T04:26:58.933Z,0
2018-01-12T04:27:59.191Z,0
2018-01-12T04:28:58.953Z,0
2018-01-12T04:29:59.280Z,0
2018-01-12T04:30:59.241Z,0
2018-01-12T04:31:59.499Z,0
2018-01-12T04:32:59.521Z,0
2018-01-12T04:33:59.276Z,0
2018-01-12T04:34:59.556Z,0
2018-01-12T04:35:59.306Z,0
2018-01-12T04:36:59.064Z,0
2018-01-12T04:37:59.590Z,0
2018-01-12T04:38:59.356Z,0
2018-01-12T04:39:59.616Z,0
2018-01-12T04:40:59.130Z,0
2018-01-12T04:41:59.395Z,0
2018-01-12T04:42:59.660Z,0
2018-01-12T04:43:59.684Z,0
2018-01-12T04:44:59.730Z,0
2018-01-12T04:45:59.192Z,0
2018-01-12T04:46:59.713Z,0
2018-01-12T04:47:59.475Z,0
2018-01-12T04:48:59.742Z,0
2018-01-12T04:49:59.802Z,0
2018-01-12T04:50:59.021Z,0
2018-01-12T04:51:59.792Z,0
2018-01-12T04:52:59.559Z,0
2018-01-12T04:53:59.824Z,0
2018-01-12T04:54:59.839Z,0
2018-01-12T04:55:59.853Z,0
2018-01-12T04:56:59.395Z,0
2018-01-12T04:57:59.388Z,0
2018-01-12T04:58:59.905Z,0
2018-01-12T04:59:59.823Z,0
2018-01-12T05:00:59.938Z,0
2018-01-12T05:01:59.446Z,0
2018-01-12T05:02:59.719Z,0
2018-01-12T05:03:59.757Z,0
2018-01-12T05:04:59.997Z,0
2018-01-12T05:06:00.011Z,0
2018-01-12T05:07:00.032Z,0
2018-01-12T05:08:00.060Z,0
2018-01-12T05:08:59.574Z,0
2018-01-12T05:09:59.816Z,0
2018-01-12T05:11:00.093Z,0
2018-01-12T05:11:59.853Z,0
2018-01-12T05:12:59.851Z,0
2018-01-12T05:13:59.613Z,0
2018-01-12T05:14:59.939Z,0
2018-01-12T05:15:59.896Z,0
2018-01-12T05:16:59.917Z,0
2018-01-12T05:17:59.937Z,0
2018-01-12T05:19:00.200Z,0
2018-01-12T05:19:59.957Z,0
2018-01-12T05:21:00.050Z,0
2018-01-12T05:22:00.347Z,0
2018-01-12T05:23:00.268Z,0
2018-01-12T05:24:00.031Z,0
2018-01-12T05:25:00.291Z,0
2018-01-12T05:26:00.054Z,0
2018-01-12T05:27:00.328Z,0
2018-01-12T05:27:59.831Z,0
2018-01-12T05:29:00.357Z,0
2018-01-12T05:30:00.425Z,0
2018-01-12T05:31:00.124Z,0
2018-01-12T05:32:00.395Z,0
2018-01-12T05:33:00.416Z,0
2018-01-12T05:34:00.428Z,0
2018-01-12T05:35:00.256Z,0
2018-01-12T05:36:00.206Z,0
2018-01-12T05:37:00.220Z,0
2018-01-12T05:38:00.539Z,0
2018-01-12T05:39:00.508Z,0
2018-01-12T05:40:00.265Z,0
2018-01-12T05:41:00.539Z,0
2018-01-12T05:42:00.545Z,0
2018-01-12T05:43:00.056Z,0
2018-01-12T05:44:00.072Z,0
2018-01-12T05:45:00.634Z,0
2018-01-12T05:46:00.346Z,0
2018-01-12T05:47:00.359Z,0
2018-01-12T05:48:00.625Z,0
2018-01-12T05:49:00.389Z,0
2018-01-12T05:50:00.411Z,0
2018-01-12T05:51:00.421Z,0
2018-01-12T05:52:00.706Z,0
2018-01-12T05:53:00.721Z,0
2018-01-12T05:54:00.729Z,0
2018-01-12T05:55:00.341Z,0
2018-01-12T05:56:00.248Z,0
2018-01-12T05:57:00.270Z,0
2018-01-12T05:58:00.535Z,0
2018-01-12T05:59:00.551Z,0
2018-01-12T06:00:00.618Z,0
2018-01-12T06:01:00.590Z,0
2018-01-12T06:02:00.597Z,0
2018-01-12T06:03:00.862Z,0
2018-01-12T06:04:00.632Z,0
2018-01-12T06:05:00.996Z,0
2018-01-12T06:06:00.911Z,0
2018-01-12T06:07:00.417Z,0
2018-01-12T06:08:00.683Z,0
2018-01-12T06:09:00.952Z,0
2018-01-12T06:10:00.715Z,0
2018-01-12T06:11:00.478Z,0
2018-01-12T06:12:00.746Z,0
2018-01-12T06:13:00.784Z,0
2018-01-12T06:14:00.779Z,0
2018-01-12T06:15:00.945Z,0
2018-01-12T06:16:00.554Z,0
2018-01-12T06:17:00.897Z,0
2018-01-12T06:18:01.096Z,0
2018-01-12T06:19:00.886Z,0
2018-01-12T06:20:00.868Z,0
2018-01-12T06:21:00.888Z,0
2018-01-12T06:22:00.898Z,0
2018-01-12T06:23:00.660Z,0
2018-01-12T06:24:00.925Z,0
2018-01-12T06:25:00.946Z,0
2018-01-12T06:26:01.198Z,0
2018-01-12T06:27:01.216Z,0
2018-01-12T06:28:00.986Z,0
2018-01-12T06:29:00.762Z,0
2018-01-12T06:30:01.270Z,0
2018-01-12T06:31:01.085Z,0
2018-01-12T06:32:01.100Z,0
2018-01-12T06:33:01.061Z,0
2018-01-12T06:34:01.332Z,0
2018-01-12T06:35:00.846Z,0
2018-01-12T06:36:01.360Z,4
2018-01-12T06:37:00.871Z,4
2018-01-12T06:38:01.130Z,0
2018-01-12T06:39:01.403Z,0
2018-01-12T06:40:00.921Z,4
2018-01-12T06:41:01.493Z,4
2018-01-12T06:42:01.202Z,4
2018-01-12T06:43:01.212Z,8
2018-01-12T06:44:01.221Z,4
2018-01-12T06:45:00.984Z,8
2018-01-12T06:46:01.253Z,8
2018-01-12T06:47:01.271Z,12
2018-01-12T06:48:01.304Z,12
2018-01-12T06:49:01.298Z,16
2018-01-12T06:50:01.566Z,16
2018-01-12T06:51:01.576Z,20
2018-01-12T06:52:01.697Z,24
2018-01-12T06:53:01.366Z,24
2018-01-12T06:54:01.633Z,28
2018-01-12T06:55:01.176Z,24
2018-01-12T06:56:01.400Z,28
2018-01-12T06:57:00.907Z,32
2018-01-12T06:58:01.431Z,40
2018-01-12T06:59:01.191Z,40
2018-01-12T07:00:01.476Z,48
2018-01-12T07:01:01.728Z,52
2018-01-12T07:02:01.539Z,56
2018-01-12T07:03:01.762Z,64
2018-01-12T07:04:01.523Z,76
2018-01-12T07:05:01.540Z,84
2018-01-12T07:06:01.798Z,88
2018-01-12T07:07:01.661Z,96
2018-01-12T07:08:01.580Z,100
2018-01-12T07:09:01.341Z,104
2018-01-12T07:10:01.604Z,108
2018-01-12T07:11:01.370Z,116
2018-01-12T07:12:01.647Z,124
2018-01-12T07:13:01.650Z,136
2018-01-12T07:14:01.416Z,152
2018-01-12T07:15:01.679Z,168
2018-01-12T07:16:01.694Z,180
2018-01-12T07:17:01.772Z,188
2018-01-12T07:18:01.974Z,192
2018-01-12T07:19:01.739Z,204
2018-01-12T07:20:02.027Z,216
2018-01-12T07:21:01.770Z,232
2018-01-12T07:22:02.044Z,244
2018-01-12T07:23:02.057Z,264
2018-01-12T07:24:01.814Z,288
2018-01-12T07:25:01.884Z,320
2018-01-12T07:26:01.589Z,352
2018-01-12T07:27:02.108Z,380
2018-01-12T07:28:01.870Z,412
2018-01-12T07:29:02.137Z,448
2018-01-12T07:30:02.157Z,480
2018-01-12T07:31:01.911Z,512
2018-01-12T07:32:01.824Z,544
2018-01-12T07:33:01.911Z,580
2018-01-12T07:34:01.957Z,604
2018-01-12T07:35:01.753Z,608
2018-01-12T07:36:01.739Z,612
2018-01-12T07:37:01.768Z,640
2018-01-12T07:38:02.448Z,688
2018-01-12T07:39:02.031Z,716
2018-01-12T07:40:02.052Z,728
2018-01-12T07:41:02.063Z,716
2018-01-12T07:42:02.077Z,720
2018-01-12T07:43:01.841Z,744
2018-01-12T07:44:02.118Z,772
2018-01-12T07:45:02.124Z,804
2018-01-12T07:46:01.884Z,820
2018-01-12T07:47:02.050Z,824
2018-01-12T07:48:02.169Z,848
2018-01-12T07:49:02.187Z,868
2018-01-12T07:50:01.944Z,892
2018-01-12T07:51:02.456Z,900
2018-01-12T07:52:02.220Z,916
2018-01-12T07:53:01.984Z,936
2018-01-12T07:54:02.254Z,948
2018-01-12T07:55:02.277Z,964
2018-01-12T07:56:02.544Z,956
2018-01-12T07:57:02.300Z,944
2018-01-12T07:58:02.068Z,980
2018-01-12T07:59:02.592Z,1024
2018-01-12T08:00:02.356Z,1056
2018-01-12T08:01:02.614Z,1072
2018-01-12T08:02:02.440Z,1084
2018-01-12T08:03:02.395Z,1104
2018-01-12T08:04:02.396Z,1112
2018-01-12T08:05:02.440Z,1068
2018-01-12T08:06:02.441Z,1032
2018-01-12T08:07:02.250Z,1012
2018-01-12T08:08:02.491Z,1008
2018-01-12T08:09:02.537Z,1004
2018-01-12T08:10:01.997Z,1004
2018-01-12T08:11:02.762Z,964
2018-01-12T08:12:02.835Z,940
2018-01-12T08:13:02.547Z,956
2018-01-12T08:14:02.053Z,976
2018-01-12T08:15:02.824Z,1012
2018-01-12T08:16:02.621Z,1068
2018-01-12T08:17:02.362Z,1112
2018-01-12T08:18:02.368Z,1124
2018-01-12T08:19:02.644Z,1160
2018-01-12T08:20:02.655Z,1216
2018-01-12T08:21:02.475Z,1316
2018-01-12T08:22:02.479Z,1400
2018-01-12T08:23:02.699Z,1456
2018-01-12T08:24:02.999Z,1524
2018-01-12T08:25:02.732Z,1612
2018-01-12T08:26:02.992Z,1628
2018-01-12T08:27:02.506Z,1644
2018-01-12T08:28:03.024Z,1724
2018-01-12T08:29:03.046Z,1760
2018-01-12T08:30:03.058Z,1820
2018-01-12T08:31:02.575Z,1932
2018-01-12T08:32:02.852Z,2036
2018-01-12T08:33:02.602Z,2008
2018-01-12T08:34:02.865Z,1908
2018-01-12T08:35:02.627Z,1872
2018-01-12T08:36:02.646Z,1900
2018-01-12T08:37:02.961Z,1908
2018-01-12T08:38:02.935Z,1944
2018-01-12T08:39:02.947Z,2012
2018-01-12T08:40:02.713Z,2160
2018-01-12T08:41:03.027Z,2376
2018-01-12T08:42:02.482Z,2560
2018-01-12T08:43:03.252Z,2612
2018-01-12T08:44:02.770Z,2680
2018-01-12T08:45:03.296Z,2804
2018-01-12T08:46:03.057Z,2860
2018-01-12T08:47:03.069Z,2932
2018-01-12T08:48:03.341Z,3116
2018-01-12T08:49:03.360Z,3284
2018-01-12T08:50:03.119Z,3316
2018-01-12T08:51:02.881Z,3296
2018-01-12T08:52:03.348Z,3272
2018-01-12T08:53:02.908Z,3360
2018-01-12T08:54:03.198Z,3632
2018-01-12T08:55:03.197Z,3904
2018-01-12T08:56:03.212Z,3984
2018-01-12T08:57:02.974Z,4004
2018-01-12T08:58:03.504Z,4036
2018-01-12T08:59:03.006Z,4092
2018-01-12T09:00:03.338Z,4068
2018-01-12T09:01:03.293Z,3888
2018-01-12T09:02:02.810Z,3668
2018-01-12T09:03:03.578Z,3392
2018-01-12T09:04:03.340Z,3140
2018-01-12T09:05:03.628Z,3020
2018-01-12T09:06:03.626Z,3128
2018-01-12T09:07:03.027Z,3204
2018-01-12T09:08:03.400Z,3264
2018-01-12T09:09:03.162Z,3444
2018-01-12T09:10:03.431Z,3556
2018-01-12T09:11:03.194Z,3572
2018-01-12T09:12:03.464Z,3648
2018-01-12T09:13:03.481Z,3800
2018-01-12T09:14:03.244Z,4048
2018-01-12T09:15:03.770Z,4040
2018-01-12T09:16:03.524Z,4016
2018-01-12T09:17:03.287Z,4264
2018-01-12T09:18:03.595Z,4404
2018-01-12T09:19:03.571Z,4612
2018-01-12T09:20:03.587Z,4668
2018-01-12T09:21:03.860Z,4512
2018-01-12T09:22:03.927Z,4376
2018-01-12T09:23:03.890Z,4212
2018-01-12T09:24:03.655Z,4020
2018-01-12T09:25:03.669Z,3844
2018-01-12T09:26:03.689Z,3916
2018-01-12T09:27:03.706Z,4104
2018-01-12T09:28:03.465Z,4404
2018-01-12T09:29:03.986Z,4844
2018-01-12T09:30:03.502Z,4480
2018-01-12T09:31:04.040Z,4340
2018-01-12T09:32:04.049Z,4612
2018-01-12T09:33:03.798Z,4516
2018-01-12T09:34:03.811Z,4492
2018-01-12T09:35:04.099Z,4460
2018-01-12T09:36:04.099Z,4388
2018-01-12T09:37:03.918Z,4196
2018-01-12T09:38:04.136Z,4300
2018-01-12T09:39:03.905Z,4548
2018-01-12T09:40:04.161Z,4652
2018-01-12T09:41:04.178Z,4892
2018-01-12T09:42:04.199Z,5100
2018-01-12T09:43:03.962Z,5076
2018-01-12T09:44:03.975Z,5056
2018-01-12T09:45:04.245Z,5464
2018-01-12T09:46:04.263Z,5964
2018-01-12T09:47:04.031Z,6008
2018-01-12T09:48:04.294Z,6120
2018-01-12T09:49:04.309Z,6140
2018-01-12T09:50:04.333Z,5980
2018-01-12T09:51:04.342Z,6220
2018-01-12T09:52:03.649Z,6944
2018-01-12T09:53:04.374Z,6704
2018-01-12T09:54:04.147Z,6192
2018-01-12T09:55:03.907Z,6044
2018-01-12T09:56:03.944Z,6556
2018-01-12T09:57:03.931Z,7340
2018-01-12T09:58:04.456Z,7128
2018-01-12T09:59:04.223Z,6628
2018-01-12T10:00:04.266Z,6620
2018-01-12T10:01:03.995Z,6632
2018-01-12T10:02:04.274Z,6744
2018-01-12T10:03:04.536Z,7248
2018-01-12T10:04:04.553Z,7624
2018-01-12T10:05:04.061Z,7736
2018-01-12T10:06:04.589Z,7880
2018-01-12T10:07:04.142Z,11624
2018-01-12T10:08:04.360Z,13204
2018-01-12T10:09:04.382Z,8668
2018-01-12T10:10:04.397Z,7464
2018-01-12T10:11:04.407Z,7300
2018-01-12T10:12:04.689Z,7612
2018-01-12T10:13:04.450Z,7720
2018-01-12T10:14:04.715Z,7492
2018-01-12T10:15:04.484Z,6652
2018-01-12T10:16:04.497Z,6204
2018-01-12T10:17:04.511Z,6192
2018-01-12T10:18:04.524Z,6540
2018-01-12T10:19:04.039Z,7200
2018-01-12T10:20:04.059Z,7672
2018-01-12T10:21:04.577Z,7464
2018-01-12T10:22:05.048Z,7232
2018-01-12T10:23:04.861Z,10336
2018-01-12T10:24:04.630Z,27552
2018-01-12T10:25:04.393Z,32704
2018-01-12T10:26:04.660Z,35264
2018-01-12T10:27:04.678Z,35168
2018-01-12T10:28:04.447Z,22080
2018-01-12T10:29:05.014Z,13784
2018-01-12T10:30:04.755Z,12036
2018-01-12T10:31:04.250Z,11680
2018-01-12T10:32:04.779Z,15584
2018-01-12T10:33:05.037Z,21856
2018-01-12T10:34:05.084Z,28896
2018-01-12T10:35:04.826Z,20000
2018-01-12T10:36:04.894Z,30976
2018-01-12T10:37:04.358Z,26368
2018-01-12T10:38:04.435Z,11268
2018-01-12T10:39:04.649Z,10920
2018-01-12T10:40:04.922Z,17120
2018-01-12T10:41:04.933Z,16032
2018-01-12T10:42:04.954Z,11464
2018-01-12T10:43:04.972Z,9536
2018-01-12T10:44:04.994Z,18720
2018-01-12T10:45:04.765Z,24160
2018-01-12T10:46:05.287Z,12784
2018-01-12T10:47:04.804Z,23680
2018-01-12T10:48:05.074Z,17920
2018-01-12T10:49:05.108Z,35296
2018-01-12T10:50:04.610Z,42016
2018-01-12T10:51:04.884Z,14088
2018-01-12T10:52:05.162Z,11320
2018-01-12T10:53:05.227Z,12376
2018-01-12T10:54:05.201Z,12868
2018-01-12T10:55:04.969Z,11760
2018-01-12T10:56:05.236Z,21856
2018-01-12T10:57:05.257Z,19488
2018-01-12T10:58:05.024Z,17088
2018-01-12T10:59:05.056Z,13272
2018-01-12T11:00:04.816Z,14696
2018-01-12T11:01:05.089Z,34816
2018-01-12T11:02:05.366Z,13356
2018-01-12T11:03:05.149Z,12244
2018-01-12T11:04:05.152Z,11264
2018-01-12T11:05:05.174Z,12224
2018-01-12T11:06:05.199Z,20832
2018-01-12T11:07:05.215Z,15344
2018-01-12T11:08:05.287Z,12424
2018-01-12T11:09:05.263Z,12392
2018-01-12T11:10:05.533Z,12160
2018-01-12T11:11:05.796Z,11320
2018-01-12T11:12:05.314Z,10628
2018-01-12T11:13:05.585Z,10316
2018-01-12T11:14:05.379Z,10928
2018-01-12T11:15:05.380Z,11524
2018-01-12T11:16:05.899Z,13396
2018-01-12T11:17:05.672Z,13504
2018-01-12T11:18:05.946Z,11316
2018-01-12T11:19:05.710Z,11196
2018-01-12T11:20:05.979Z,11124
2018-01-12T11:21:05.747Z,11992
2018-01-12T11:22:06.019Z,11612
2018-01-12T11:23:05.587Z,10852
2018-01-12T11:24:05.805Z,10708
2018-01-12T11:25:06.074Z,10168
2018-01-12T11:26:05.845Z,9980
2018-01-12T11:27:05.866Z,10544
2018-01-12T11:28:05.891Z,10308
2018-01-12T11:29:05.918Z,10604
2018-01-12T11:30:05.675Z,11868
2018-01-12T11:31:05.691Z,13320
2018-01-12T11:32:05.718Z,17024
2018-01-12T11:33:05.780Z,39040
2018-01-12T11:34:06.254Z,14536
2018-01-12T11:35:05.767Z,13620
2018-01-12T11:36:05.540Z,16672
2018-01-12T11:37:06.331Z,20096
2018-01-12T11:38:06.132Z,22816
2018-01-12T11:39:06.112Z,20000
2018-01-12T11:40:06.132Z,20096
2018-01-12T11:41:06.134Z,14640
2018-01-12T11:42:06.439Z,13692
2018-01-12T11:43:06.192Z,14332
2018-01-12T11:44:06.203Z,17984
2018-01-12T11:45:05.972Z,19808
2018-01-12T11:46:06.011Z,16928
2018-01-12T11:47:06.012Z,21632
2018-01-12T11:48:06.288Z,36800
2018-01-12T11:49:06.560Z,42080
2018-01-12T11:50:06.077Z,42528
2018-01-12T11:51:05.844Z,24000
2018-01-12T11:52:06.376Z,41120
2018-01-12T11:53:06.686Z,17056
2018-01-12T11:54:06.410Z,36704
2018-01-12T11:55:06.185Z,45728
2018-01-12T11:56:06.458Z,42944
2018-01-12T11:57:06.735Z,43360
2018-01-12T11:58:06.755Z,26208
2018-01-12T11:59:06.515Z,16736
2018-01-12T12:00:06.314Z,17824
2018-01-12T12:01:06.833Z,18144
2018-01-12T12:02:06.597Z,31424
2018-01-12T12:03:06.869Z,26944
2018-01-12T12:04:06.635Z,31648
2018-01-12T12:05:06.940Z,49888
2018-01-12T12:06:06.689Z,45824
2018-01-12T12:07:06.964Z,49344
2018-01-12T12:08:06.525Z,38464
2018-01-12T12:09:06.504Z,51488
2018-01-12T12:10:07.063Z,44000
2018-01-12T12:11:06.562Z,41184
2018-01-12T12:12:07.096Z,18400
2018-01-12T12:13:06.625Z,22592
2018-01-12T12:14:06.691Z,19200
2018-01-12T12:15:07.191Z,42752
2018-01-12T12:16:07.242Z,38048
2018-01-12T12:17:06.709Z,15476
2018-01-12T12:18:06.988Z,13668
2018-01-12T12:19:07.014Z,12056
2018-01-12T12:20:07.297Z,10660
2018-01-12T12:21:07.115Z,9672
2018-01-12T12:22:07.347Z,9088
2018-01-12T12:23:06.662Z,9244
2018-01-12T12:24:07.132Z,9548
2018-01-12T12:25:06.914Z,10484
2018-01-12T12:26:06.927Z,12096
2018-01-12T12:27:07.211Z,13932
2018-01-12T12:28:06.983Z,25216
2018-01-12T12:29:07.251Z,26432
2018-01-12T12:30:07.029Z,14256
2018-01-12T12:31:07.297Z,14116
2018-01-12T12:32:07.571Z,14996
2018-01-12T12:33:07.090Z,15584
2018-01-12T12:34:07.124Z,17472
2018-01-12T12:35:07.389Z,15044
2018-01-12T12:36:07.415Z,14680
2018-01-12T12:37:07.183Z,16992
2018-01-12T12:38:07.254Z,22400
2018-01-12T12:39:06.978Z,43168
2018-01-12T12:40:07.502Z,25472
2018-01-12T12:41:07.786Z,38400
2018-01-12T12:42:07.547Z,48672
2018-01-12T12:43:07.412Z,57632
2018-01-12T12:44:07.332Z,320
2018-01-12T12:45:07.363Z,22144
2018-01-12T12:46:07.396Z,13760
2018-01-12T12:47:07.918Z,12836
2018-01-12T12:48:07.679Z,12628
2018-01-12T12:49:07.952Z,15544
2018-01-12T12:50:07.717Z,26656
2018-01-12T12:51:08.006Z,28000
2018-01-12T12:52:07.515Z,23104
2018-01-12T12:53:07.842Z,13388
2018-01-12T12:54:07.803Z,12688
2018-01-12T12:55:07.840Z,12316
2018-01-12T12:56:07.850Z,12736
2018-01-12T12:57:07.882Z,11052
2018-01-12T12:58:07.792Z,8832
2018-01-12T12:59:07.918Z,9548
2018-01-12T13:00:07.684Z,13432
2018-01-12T13:01:08.006Z,12264
2018-01-12T13:02:07.736Z,11148
2018-01-12T13:03:07.800Z,10220
2018-01-12T13:04:07.782Z,10652
2018-01-12T13:05:07.539Z,9800
2018-01-12T13:06:07.814Z,8628
2018-01-12T13:07:07.861Z,7908
2018-01-12T13:08:07.849Z,7524
2018-01-12T13:09:07.888Z,6640
2018-01-12T13:10:07.898Z,5112
2018-01-12T13:11:08.206Z,4088
2018-01-12T13:12:08.190Z,4340
2018-01-12T13:13:08.211Z,5768
2018-01-12T13:14:07.982Z,6664
2018-01-12T13:15:08.260Z,6688
2018-01-12T13:16:08.276Z,5912
2018-01-12T13:17:08.294Z,5216
2018-01-12T13:18:07.855Z,3928
2018-01-12T13:19:08.077Z,4008
2018-01-12T13:20:08.349Z,4380
2018-01-12T13:21:08.616Z,4588
2018-01-12T13:22:08.134Z,4500
2018-01-12T13:23:08.375Z,4472
2018-01-12T13:24:07.910Z,4480
2018-01-12T13:25:08.417Z,4584
2018-01-12T13:26:08.210Z,4460
2018-01-12T13:27:08.267Z,4068
2018-01-12T13:28:08.509Z,3852
2018-01-12T13:29:08.521Z,3700
2018-01-12T13:30:08.034Z,3436
2018-01-12T13:31:08.054Z,3200
2018-01-12T13:32:08.074Z,3212
2018-01-12T13:33:08.387Z,3336
2018-01-12T13:34:08.360Z,3424
2018-01-12T13:35:08.636Z,3508
2018-01-12T13:36:08.399Z,3852
2018-01-12T13:37:08.666Z,4328
2018-01-12T13:38:08.939Z,4436
2018-01-12T13:39:08.770Z,4568
2018-01-12T13:40:08.978Z,4896
2018-01-12T13:41:08.488Z,5888
2018-01-12T13:42:08.760Z,6988
2018-01-12T13:43:08.774Z,7412
2018-01-12T13:44:08.794Z,7464
2018-01-12T13:45:08.828Z,7484
2018-01-12T13:46:08.829Z,8188
2018-01-12T13:47:08.345Z,8444
2018-01-12T13:48:08.915Z,8668
2018-01-12T13:49:08.632Z,9516
2018-01-12T13:50:08.652Z,9996
2018-01-12T13:51:08.937Z,10568
2018-01-12T13:52:08.682Z,11364
2018-01-12T13:53:08.801Z,11968
2018-01-12T13:54:08.974Z,12200
2018-01-12T13:55:08.485Z,12684
2018-01-12T13:56:08.505Z,12632
2018-01-12T13:57:08.782Z,12832